In Rescue
 
Open Full Screen Window  High Contrast Mode
April 03, 2020 12:40 AM EDT
Weather Information
Wind Direction
  ---
Wind Speed
  00 kt (0 mph)
Wind Gust
  00 kt (0 mph)
Altimeter
30.08 in
Visibility
10 SM
Temperature
00° C
32° F
Dewpoint
-02° C
28° F
Humidity
87%
Sky Condition
Clear
VFR

METAR KBAX 030440Z AUTO 00000KT 10SM CLR 00/M02 A3008 RMK AO2 T10041021

FAA Disclaimer: The data displayed is for advisory purposes only and is not to be used for flight planning or operations.